Time;durP1;ratioP1;P1;durP2;ratioP2;P2;SDS_P1;SDS_P2;PMS_P1;PMS_P2;Temp;Humidity;BMP_temperature;BMP_pressure;BME280_temperature;BME280_humidity;BME280_pressure;Samples;Min_cycle;Max_cycle;Signal;HPM_P1;HPM_P2
2022/08/20 00:00:21;;;;;;;4.03;3.03;;;;;26.00;101399.00;;;;5097788;28;20202;-77
2022/08/20 00:02:52;;;;;;;5.07;3.15;;;;;26.00;101391.00;;;;5087660;28;20221;-76
2022/08/20 00:05:24;;;;;;;3.70;2.95;;;;;26.00;101389.00;;;;5101585;28;20231;-77
2022/08/20 00:07:52;;;;;;;4.20;3.30;;;;;26.00;101390.00;;;;5104852;28;20193;-77
2022/08/20 00:10:23;;;;;;;3.83;3.28;;;;;26.00;101390.00;;;;5079846;28;20198;-77
2022/08/20 00:12:51;;;;;;;3.47;2.90;;;;;26.00;101394.00;;;;5086977;28;20225;-77
2022/08/20 00:15:22;;;;;;;3.97;3.35;;;;;26.00;101393.00;;;;5086676;28;20202;-77
2022/08/20 00:17:51;;;;;;;5.28;3.63;;;;;26.00;101393.00;;;;5088441;28;20198;-77
2022/08/20 00:20:21;;;;;;;3.72;3.10;;;;;26.00;101401.00;;;;5092842;28;20817;-77
2022/08/20 00:22:49;;;;;;;6.85;3.67;;;;;26.00;101397.00;;;;5089347;28;20687;-76
2022/08/20 00:25:17;;;;;;;5.28;3.40;;;;;26.00;101402.00;;;;5090077;28;20213;-77
2022/08/20 00:27:44;;;;;;;5.25;3.28;;;;;26.00;101410.00;;;;5105754;28;20703;-77
2022/08/20 00:30:13;;;;;;;4.70;3.88;;;;;26.00;101397.00;;;;5092069;28;20205;-77
2022/08/20 00:32:48;;;;;;;4.82;3.75;;;;;25.90;101392.00;;;;5107790;28;20197;-76
2022/08/20 00:35:16;;;;;;;7.57;3.92;;;;;26.00;101395.00;;;;5107576;28;20197;-77
2022/08/20 00:37:44;;;;;;;5.50;4.22;;;;;26.00;101399.00;;;;5098852;28;20198;-77
2022/08/20 00:40:14;;;;;;;5.43;3.67;;;;;26.00;101404.00;;;;5090723;28;20202;-77
2022/08/20 00:42:44;;;;;;;7.22;3.63;;;;;26.00;101401.00;;;;5073892;28;20222;-77
2022/08/20 00:45:12;;;;;;;7.25;4.03;;;;;25.90;101405.00;;;;5075152;28;20571;-77
2022/08/20 00:47:41;;;;;;;4.50;3.72;;;;;26.00;101412.00;;;;5076995;28;20199;-77
2022/08/20 00:50:14;;;;;;;5.40;3.88;;;;;25.90;101399.00;;;;5084899;28;20199;-76
2022/08/20 00:52:44;;;;;;;8.30;4.80;;;;;25.90;101395.00;;;;5100302;28;20255;-77
2022/08/20 00:55:12;;;;;;;6.05;4.30;;;;;25.90;101393.00;;;;5098856;28;20668;-77
2022/08/20 00:57:42;;;;;;;8.65;4.25;;;;;25.90;101394.00;;;;5086186;28;20209;-77
2022/08/20 01:00:13;;;;;;;8.07;4.88;;;;;25.90;101394.00;;;;5090486;28;20772;-77
2022/08/20 01:02:41;;;;;;;7.15;4.15;;;;;25.90;101391.00;;;;5082049;28;20278;-77
2022/08/20 01:05:11;;;;;;;6.18;4.50;;;;;25.90;101392.00;;;;5090385;28;20669;-77
2022/08/20 01:07:38;;;;;;;6.28;4.75;;;;;25.90;101387.00;;;;5089923;28;20210;-77
2022/08/20 01:10:09;;;;;;;6.95;4.20;;;;;25.90;101386.00;;;;5089501;28;20659;-77
2022/08/20 01:12:39;;;;;;;7.35;4.45;;;;;25.90;101387.00;;;;5090716;28;20214;-77
2022/08/20 01:15:12;;;;;;;5.60;4.65;;;;;25.90;101394.00;;;;5089924;28;20222;-77
2022/08/20 01:17:49;;;;;;;5.50;4.30;;;;;25.90;101393.00;;;;5086812;28;20338;-77
2022/08/20 01:20:22;;;;;;;5.10;3.95;;;;;25.90;101395.00;;;;5091910;28;20216;-77
2022/08/20 01:25:48;;;;;;;5.07;3.90;;;;;25.80;101403.00;;;;5087956;28;20205;-77
2022/08/20 01:28:20;;;;;;;4.75;4.25;;;;;25.80;101404.00;;;;5097015;28;20269;-76
2022/08/20 01:30:48;;;;;;;5.53;4.80;;;;;25.80;101411.00;;;;5086733;28;20198;-77
2022/08/20 01:33:17;;;;;;;7.03;4.60;;;;;25.80;101398.00;;;;5083106;28;20558;-77
2022/08/20 01:35:45;;;;;;;6.63;4.55;;;;;25.80;101401.00;;;;5081117;28;20561;-77
2022/08/20 01:38:13;;;;;;;4.97;4.50;;;;;25.80;101400.00;;;;5084871;28;20208;-77
2022/08/20 01:41:23;;;;;;;6.53;5.22;;;;;25.70;101397.00;;;;5089291;28;20198;-77
2022/08/20 01:43:55;;;;;;;5.15;4.25;;;;;25.80;101397.00;;;;5080840;28;20221;-77
2022/08/20 01:46:24;;;;;;;7.68;5.65;;;;;25.80;101388.00;;;;5088526;28;20201;-77
2022/08/20 01:48:53;;;;;;;6.07;5.07;;;;;25.80;101391.00;;;;5097999;28;20255;-77
2022/08/20 01:51:24;;;;;;;5.03;4.15;;;;;25.80;101392.00;;;;5088866;28;20202;-77
2022/08/20 01:53:55;;;;;;;7.85;5.15;;;;;25.70;101401.00;;;;5089397;28;20210;-77
2022/08/20 01:56:27;;;;;;;5.68;4.88;;;;;25.70;101393.00;;;;5101349;28;20565;-77
2022/08/20 01:58:56;;;;;;;6.70;4.75;;;;;25.70;101407.00;;;;5083604;28;20201;-77
2022/08/20 02:01:28;;;;;;;5.95;4.65;;;;;25.70;101412.00;;;;5082644;28;20195;-77
2022/08/20 02:03:56;;;;;;;6.05;4.38;;;;;25.70;101404.00;;;;5084417;28;20237;-77
2022/08/20 02:06:25;;;;;;;5.85;4.80;;;;;25.70;101397.00;;;;5088451;28;20202;-77
2022/08/20 02:08:58;;;;;;;6.43;5.35;;;;;25.70;101390.00;;;;5096659;28;20193;-77
2022/08/20 02:11:28;;;;;;;6.85;5.32;;;;;25.70;101410.00;;;;5091885;28;20229;-77
2022/08/20 02:13:56;;;;;;;7.20;5.78;;;;;25.70;101408.00;;;;5088591;28;20230;-77
2022/08/20 02:16:29;;;;;;;7.53;5.85;;;;;25.70;101405.00;;;;5089013;28;20186;-77
2022/08/20 02:18:58;;;;;;;6.13;4.95;;;;;25.70;101403.00;;;;5088557;28;20205;-77
2022/08/20 02:21:30;;;;;;;7.38;5.35;;;;;25.70;101406.00;;;;5094030;28;20211;-77
2022/08/20 02:23:58;;;;;;;5.90;4.43;;;;;25.70;101408.00;;;;5089145;28;20291;-77
2022/08/20 02:26:28;;;;;;;5.60;4.28;;;;;25.70;101403.00;;;;5087877;28;20218;-77
2022/08/20 02:28:59;;;;;;;6.88;3.90;;;;;25.70;101398.00;;;;5088136;28;20195;-77
2022/08/20 02:31:26;;;;;;;7.78;4.10;;;;;25.70;101394.00;;;;5094569;28;20186;-77
2022/08/20 02:33:54;;;;;;;4.65;3.90;;;;;25.70;101397.00;;;;5099995;28;20202;-77
2022/08/20 02:36:21;;;;;;;5.90;4.55;;;;;25.70;101395.00;;;;5098547;28;20198;-77
2022/08/20 02:38:48;;;;;;;4.65;3.75;;;;;25.70;101404.00;;;;5095292;28;20233;-77
2022/08/20 02:41:16;;;;;;;5.25;3.28;;;;;25.70;101413.00;;;;5094309;28;20198;-77
2022/08/20 02:43:44;;;;;;;5.28;3.85;;;;;25.60;101414.00;;;;5087090;28;20225;-77
2022/08/20 02:46:14;;;;;;;4.82;3.90;;;;;25.60;101406.00;;;;5086915;28;20198;-77
2022/08/20 02:48:42;;;;;;;6.63;3.20;;;;;25.60;101407.00;;;;5087329;28;20199;-77
2022/08/20 02:51:09;;;;;;;4.90;3.22;;;;;25.60;101406.00;;;;5087780;28;20202;-77
2022/08/20 02:53:40;;;;;;;5.65;3.08;;;;;25.60;101413.00;;;;5096537;28;20208;-77
2022/08/20 02:56:08;;;;;;;4.07;2.78;;;;;25.60;101412.00;;;;5091901;28;20863;-77
2022/08/20 02:58:36;;;;;;;4.32;3.25;;;;;25.60;101403.00;;;;5087131;28;20194;-77
2022/08/20 03:01:07;;;;;;;4.57;3.42;;;;;25.60;101400.00;;;;5092536;28;20202;-77
2022/08/20 03:03:35;;;;;;;3.72;3.15;;;;;25.60;101414.00;;;;5086630;28;20224;-76
2022/08/20 03:06:04;;;;;;;5.25;3.47;;;;;25.60;101413.00;;;;5106595;28;20715;-77
2022/08/20 03:08:31;;;;;;;4.57;3.28;;;;;25.60;101417.00;;;;5092388;28;20242;-78
2022/08/20 03:10:58;;;;;;;5.80;3.38;;;;;25.60;101413.00;;;;5086857;28;20203;-77
2022/08/20 03:13:26;;;;;;;4.25;3.20;;;;;25.60;101416.00;;;;5108755;28;20210;-77
2022/08/20 03:15:56;;;;;;;4.95;3.58;;;;;25.60;101415.00;;;;5097480;28;20200;-77
2022/08/20 03:18:27;;;;;;;3.72;3.10;;;;;25.50;101417.00;;;;5108275;28;20563;-77
2022/08/20 03:20:54;;;;;;;4.85;3.05;;;;;25.60;101416.00;;;;5088599;28;20198;-77
2022/08/20 03:23:22;;;;;;;4.47;2.83;;;;;25.60;101406.00;;;;5094389;28;20197;-77
2022/08/20 03:25:49;;;;;;;4.32;3.00;;;;;25.60;101416.00;;;;5087877;28;20194;-77
2022/08/20 03:28:18;;;;;;;4.10;2.63;;;;;25.50;101411.00;;;;5098209;28;20209;-78
2022/08/20 03:30:46;;;;;;;4.75;2.55;;;;;25.50;101417.00;;;;5093420;28;20239;-78
2022/08/20 03:33:15;;;;;;;4.40;2.35;;;;;25.50;101414.00;;;;5103022;28;20205;-77
2022/08/20 03:35:43;;;;;;;4.15;3.00;;;;;25.50;101414.00;;;;5102468;28;20201;-78
2022/08/20 03:38:13;;;;;;;5.45;3.25;;;;;25.50;101415.00;;;;5086205;28;20197;-77
2022/08/20 03:40:41;;;;;;;4.85;2.75;;;;;25.50;101417.00;;;;5080049;28;20281;-77
2022/08/20 03:43:10;;;;;;;3.08;2.72;;;;;25.50;101419.00;;;;5096852;28;20198;-78
2022/08/20 03:45:39;;;;;;;3.83;3.05;;;;;25.50;101416.00;;;;5083014;28;20226;-78
2022/08/20 03:48:09;;;;;;;3.00;2.33;;;;;25.40;101426.00;;;;5068775;28;20575;-79
2022/08/20 03:50:38;;;;;;;3.25;2.35;;;;;25.50;101432.00;;;;5085587;28;20202;-78
2022/08/20 03:53:07;;;;;;;5.90;2.58;;;;;25.50;101431.00;;;;5088434;28;20202;-78
2022/08/20 03:55:35;;;;;;;3.22;2.92;;;;;25.50;101428.00;;;;5087753;28;21053;-78
2022/08/20 03:58:05;;;;;;;5.18;2.50;;;;;25.50;101435.00;;;;5088389;28;20691;-78
2022/08/20 04:00:35;;;;;;;3.45;2.47;;;;;25.40;101428.00;;;;5090634;28;20201;-77
2022/08/20 04:03:03;;;;;;;2.85;2.17;;;;;25.40;101420.00;;;;5106246;28;20205;-77
2022/08/20 04:05:32;;;;;;;3.35;2.50;;;;;25.40;101419.00;;;;5086959;28;20301;-77
2022/08/20 04:08:00;;;;;;;3.03;2.45;;;;;25.40;101416.00;;;;5087671;28;20202;-77
2022/08/20 04:10:29;;;;;;;2.97;2.53;;;;;25.40;101419.00;;;;5087471;28;20691;-77
2022/08/20 04:12:57;;;;;;;2.80;2.17;;;;;25.30;101428.00;;;;5087539;28;20222;-78
2022/08/20 04:15:24;;;;;;;2.70;2.47;;;;;25.30;101425.00;;;;5089883;28;20201;-77
2022/08/20 04:17:52;;;;;;;2.88;2.55;;;;;25.30;101432.00;;;;5083825;28;20202;-77
2022/08/20 04:20:24;;;;;;;4.07;2.47;;;;;25.20;101431.00;;;;5085154;28;20310;-77
2022/08/20 04:22:53;;;;;;;6.32;2.35;;;;;25.20;101432.00;;;;5086260;28;20225;-77
2022/08/20 04:25:21;;;;;;;2.42;2.22;;;;;25.20;101437.00;;;;5084234;28;20215;-77
2022/08/20 04:27:50;;;;;;;3.85;2.50;;;;;25.10;101451.00;;;;5092563;28;20265;-77
2022/08/20 04:30:19;;;;;;;2.72;2.50;;;;;25.10;101449.00;;;;5097416;28;20194;-77
2022/08/20 04:32:48;;;;;;;4.10;2.75;;;;;25.10;101449.00;;;;5071064;28;20251;-77
2022/08/20 04:35:16;;;;;;;3.03;2.58;;;;;25.10;101456.00;;;;5091151;28;20202;-77
2022/08/20 04:37:46;;;;;;;4.70;2.92;;;;;25.10;101450.00;;;;5089487;28;20229;-77
2022/08/20 04:43:03;;;;;;;3.00;2.67;;;;;25.00;101452.00;;;;5090021;28;20278;-77
2022/08/20 04:45:31;;;;;;;3.70;2.38;;;;;25.00;101446.00;;;;5076536;28;20227;-77
2022/08/20 04:48:04;;;;;;;3.45;2.38;;;;;24.90;101452.00;;;;5082399;28;21111;-78
2022/08/20 04:50:34;;;;;;;2.78;2.17;;;;;24.90;101460.00;;;;5090492;28;20271;-77
2022/08/20 04:53:01;;;;;;;2.35;2.13;;;;;24.90;101462.00;;;;5092081;28;20226;-77
2022/08/20 04:55:29;;;;;;;2.35;2.15;;;;;24.80;101470.00;;;;5090936;28;20939;-77
2022/08/20 04:58:01;;;;;;;3.00;2.33;;;;;24.80;101470.00;;;;5090459;28;20257;-77
2022/08/20 05:00:30;;;;;;;3.28;2.60;;;;;24.80;101467.00;;;;5093190;28;20607;-77
2022/08/20 05:02:58;;;;;;;3.50;2.42;;;;;24.80;101470.00;;;;5097663;28;20243;-77
2022/08/20 05:05:29;;;;;;;3.95;2.38;;;;;24.80;101469.00;;;;5101333;28;20222;-77
2022/08/20 05:07:57;;;;;;;2.08;1.85;;;;;24.70;101469.00;;;;5090837;28;20202;-77
2022/08/20 05:10:25;;;;;;;5.65;2.28;;;;;24.70;101474.00;;;;5089705;28;20201;-77
2022/08/20 05:12:52;;;;;;;3.70;2.58;;;;;24.70;101482.00;;;;5107931;28;21054;-77
2022/08/20 05:15:20;;;;;;;3.10;2.63;;;;;24.70;101478.00;;;;5095669;28;20220;-77
2022/08/20 05:17:54;;;;;;;3.53;2.50;;;;;24.60;101482.00;;;;5099957;28;20206;-77
2022/08/20 05:20:21;;;;;;;2.67;2.47;;;;;24.60;101475.00;;;;5096779;28;20219;-77
2022/08/20 05:22:48;;;;;;;3.15;2.55;;;;;24.60;101483.00;;;;5087744;28;20205;-77
2022/08/20 05:25:16;;;;;;;2.47;2.20;;;;;24.60;101487.00;;;;5088725;28;20233;-76
2022/08/20 05:27:43;;;;;;;3.13;2.53;;;;;24.60;101488.00;;;;5086730;28;20222;-77
2022/08/20 05:30:12;;;;;;;5.32;2.38;;;;;24.50;101487.00;;;;5088626;28;20225;-77
2022/08/20 05:32:40;;;;;;;5.13;2.38;;;;;24.50;101494.00;;;;5088817;28;20206;-77
2022/08/20 05:35:10;;;;;;;3.22;2.47;;;;;24.50;101493.00;;;;5088892;28;20649;-77
2022/08/20 05:37:39;;;;;;;2.35;2.10;;;;;24.50;101498.00;;;;5093110;28;20206;-76
2022/08/20 05:40:13;;;;;;;3.55;2.28;;;;;24.50;101494.00;;;;5087473;28;20743;-76
2022/08/20 05:42:42;;;;;;;2.80;2.35;;;;;24.50;101494.00;;;;5087509;28;20198;-78
2022/08/20 05:45:10;;;;;;;2.92;2.03;;;;;24.50;101494.00;;;;5085681;28;20222;-76
2022/08/20 05:47:40;;;;;;;2.47;2.03;;;;;24.40;101495.00;;;;5083076;28;20206;-78
2022/08/20 05:50:11;;;;;;;2.88;2.22;;;;;24.40;101499.00;;;;5089474;28;20198;-77
2022/08/20 05:52:40;;;;;;;2.60;2.40;;;;;24.50;101498.00;;;;5088145;28;20202;-77
2022/08/20 05:55:09;;;;;;;2.53;2.28;;;;;24.40;101504.00;;;;5070247;28;20222;-77
2022/08/20 05:57:37;;;;;;;3.15;2.20;;;;;24.50;101504.00;;;;5089064;28;22011;-77
2022/08/20 06:00:07;;;;;;;3.33;2.33;;;;;24.50;101510.00;;;;5089862;28;20683;-75
2022/08/20 06:05:29;;;;;;;2.75;2.08;;;;;24.50;101510.00;;;;5047949;28;20229;-77
2022/08/20 06:07:56;;;;;;;7.03;2.70;;;;;24.60;101512.00;;;;5094095;28;20198;-78
2022/08/20 06:10:23;;;;;;;3.47;2.42;;;;;24.60;101508.00;;;;5093366;28;20202;-78
2022/08/20 06:12:52;;;;;;;2.53;1.92;;;;;24.60;101512.00;;;;5091487;28;20226;-76
2022/08/20 06:15:20;;;;;;;4.47;2.00;;;;;24.70;101513.00;;;;5089306;28;20210;-77
2022/08/20 06:17:47;;;;;;;2.72;2.00;;;;;24.70;101515.00;;;;5102101;28;20202;-77
2022/08/20 06:20:14;;;;;;;3.13;2.10;;;;;24.80;101519.00;;;;5087672;28;20577;-77
2022/08/20 06:22:43;;;;;;;3.10;2.10;;;;;24.80;101511.00;;;;5087487;28;21031;-77
2022/08/20 06:25:11;;;;;;;3.45;2.20;;;;;24.80;101512.00;;;;5105508;28;20274;-77
2022/08/20 06:27:39;;;;;;;6.18;2.67;;;;;24.90;101513.00;;;;5089727;28;20581;-77
2022/08/20 06:30:08;;;;;;;2.50;1.90;;;;;24.90;101508.00;;;;5110498;28;20200;-77
2022/08/20 06:32:35;;;;;;;2.20;1.90;;;;;25.00;101520.00;;;;5089272;28;20200;-77
2022/08/20 06:35:04;;;;;;;4.90;2.00;;;;;25.00;101521.00;;;;5089293;28;20273;-77
2022/08/20 06:37:35;;;;;;;4.30;2.13;;;;;25.10;101516.00;;;;5089334;28;20288;-76
2022/08/20 06:40:07;;;;;;;2.60;1.65;;;;;25.10;101522.00;;;;5092177;28;20205;-76
2022/08/20 06:42:35;;;;;;;4.72;2.00;;;;;25.20;101522.00;;;;5089902;28;20208;-77
2022/08/20 06:45:04;;;;;;;2.10;1.73;;;;;25.20;101518.00;;;;5088561;28;20217;-77
2022/08/20 06:47:32;;;;;;;3.47;1.85;;;;;25.30;101512.00;;;;5088714;28;20227;-77
2022/08/20 06:50:00;;;;;;;4.55;1.85;;;;;25.40;101520.00;;;;5087955;28;20577;-77
2022/08/20 06:52:27;;;;;;;2.83;1.67;;;;;25.40;101526.00;;;;5081588;28;20195;-77
2022/08/20 06:54:55;;;;;;;3.45;1.70;;;;;25.50;101527.00;;;;5071977;28;20190;-77
2022/08/20 06:57:23;;;;;;;3.33;1.63;;;;;25.50;101522.00;;;;5087303;28;20197;-78
2022/08/20 06:59:51;;;;;;;3.75;1.40;;;;;25.60;101520.00;;;;5088147;28;20233;-78
2022/08/20 07:02:19;;;;;;;3.90;1.27;;;;;25.60;101524.00;;;;5086307;28;20708;-76
2022/08/20 07:04:46;;;;;;;5.13;1.65;;;;;25.70;101528.00;;;;5076981;28;20305;-77
2022/08/20 07:07:17;;;;;;;4.18;1.60;;;;;25.70;101526.00;;;;5087286;28;20796;-77
2022/08/20 07:09:45;;;;;;;2.35;1.60;;;;;25.80;101538.00;;;;5085517;28;20206;-77
2022/08/20 07:12:12;;;;;;;3.33;1.50;;;;;25.90;101538.00;;;;5088275;28;20202;-77
2022/08/20 07:14:41;;;;;;;2.67;1.20;;;;;25.90;101532.00;;;;5078747;28;20215;-78
2022/08/20 07:17:10;;;;;;;4.45;1.58;;;;;25.90;101538.00;;;;5087354;28;20210;-78
2022/08/20 07:19:38;;;;;;;2.97;1.35;;;;;26.00;101538.00;;;;5087541;28;20202;-78
2022/08/20 07:22:05;;;;;;;4.57;1.58;;;;;26.00;101540.00;;;;5087425;28;20197;-78
2022/08/20 07:24:33;;;;;;;3.47;1.35;;;;;26.10;101539.00;;;;5087355;28;20197;-76
2022/08/20 07:27:00;;;;;;;2.25;1.40;;;;;26.20;101542.00;;;;5087357;28;20218;-76
2022/08/20 07:32:33;;;;;;;3.47;1.63;;;;;26.20;101547.00;;;;5088463;28;20217;-77
2022/08/20 07:32:33;;;;;;;2.58;1.42;;;;;26.20;101548.00;;;;5086425;28;20197;-78
2022/08/20 07:35:00;;;;;;;1.65;1.00;;;;;26.30;101551.00;;;;5084708;28;20213;-78
2022/08/20 07:37:28;;;;;;;5.10;1.50;;;;;26.30;101551.00;;;;5088419;28;20293;-78
2022/08/20 07:39:55;;;;;;;5.40;1.58;;;;;26.40;101555.00;;;;5087633;28;20205;-78
2022/08/20 07:42:22;;;;;;;3.80;1.10;;;;;26.40;101559.00;;;;5087395;28;20228;-79
2022/08/20 07:44:51;;;;;;;3.17;1.48;;;;;26.50;101561.00;;;;5084501;28;20307;-78
2022/08/20 07:47:20;;;;;;;2.20;1.02;;;;;26.50;101568.00;;;;5087766;28;20194;-77
2022/08/20 07:49:47;;;;;;;3.30;1.05;;;;;26.60;101566.00;;;;5085270;28;20198;-78
2022/08/20 07:52:15;;;;;;;5.80;1.48;;;;;26.70;101571.00;;;;5085344;28;20186;-77
2022/08/20 07:54:43;;;;;;;3.05;1.00;;;;;26.80;101577.00;;;;5085592;28;20225;-77
2022/08/20 07:57:11;;;;;;;4.75;1.15;;;;;26.80;101574.00;;;;5086107;28;20206;-77
2022/08/20 07:59:38;;;;;;;6.75;1.60;;;;;26.90;101571.00;;;;5086990;28;20194;-76
2022/08/20 08:02:06;;;;;;;2.80;1.20;;;;;26.90;101577.00;;;;5086986;28;20655;-76
2022/08/20 08:04:35;;;;;;;3.50;1.25;;;;;27.00;101582.00;;;;5086612;28;20225;-76
2022/08/20 08:07:03;;;;;;;2.58;1.20;;;;;27.10;101578.00;;;;5085559;28;20295;-77
2022/08/20 08:09:34;;;;;;;4.47;1.50;;;;;27.10;101586.00;;;;5093646;28;20213;-79
2022/08/20 08:12:02;;;;;;;3.55;1.05;;;;;27.30;101581.00;;;;5103286;28;20273;-77
2022/08/20 08:14:33;;;;;;;2.95;1.17;;;;;27.30;101584.00;;;;5086859;28;20198;-80
2022/08/20 08:17:04;;;;;;;3.97;0.93;;;;;27.40;101582.00;;;;5087456;28;20206;-78
2022/08/20 08:19:37;;;;;;;2.25;1.10;;;;;27.40;101587.00;;;;5091480;28;20194;-78
2022/08/20 08:22:06;;;;;;;2.97;1.23;;;;;27.60;101583.00;;;;5090379;28;20198;-79
2022/08/20 08:24:35;;;;;;;3.75;1.08;;;;;27.60;101585.00;;;;5088875;28;20193;-78
2022/08/20 08:27:02;;;;;;;4.80;1.05;;;;;27.70;101588.00;;;;5090322;28;20233;-77
2022/08/20 08:29:29;;;;;;;2.88;1.10;;;;;27.80;101588.00;;;;5109807;28;20701;-79
2022/08/20 08:31:57;;;;;;;4.43;0.90;;;;;27.90;101581.00;;;;5098957;28;20198;-79
2022/08/20 08:34:24;;;;;;;3.38;0.80;;;;;28.00;101582.00;;;;5090416;28;20197;-77
2022/08/20 08:36:54;;;;;;;2.90;0.80;;;;;28.00;101596.00;;;;5084322;28;20247;-78
2022/08/20 08:39:21;;;;;;;1.60;0.90;;;;;28.10;101593.00;;;;5089917;28;20619;-77
2022/08/20 08:41:50;;;;;;;2.22;0.85;;;;;28.20;101587.00;;;;5089933;28;20207;-78
2022/08/20 08:44:22;;;;;;;4.55;1.02;;;;;28.20;101595.00;;;;5096322;28;20189;-79
2022/08/20 08:46:52;;;;;;;3.60;0.90;;;;;28.30;101591.00;;;;5097551;28;20282;-79
2022/08/20 08:49:23;;;;;;;2.25;0.82;;;;;28.40;101596.00;;;;5088855;28;20205;-78
2022/08/20 08:51:56;;;;;;;7.00;1.27;;;;;28.50;101592.00;;;;5106764;28;20657;-79
2022/08/20 08:54:27;;;;;;;2.83;0.80;;;;;28.60;101593.00;;;;5092357;28;20202;-80
2022/08/20 08:56:55;;;;;;;4.20;1.10;;;;;28.70;101599.00;;;;5087869;28;20202;-81
2022/08/20 08:59:23;;;;;;;2.40;0.80;;;;;28.70;101602.00;;;;5085584;28;20203;-78
2022/08/20 09:01:53;;;;;;;2.03;0.70;;;;;28.80;101606.00;;;;5086244;28;20206;-80
2022/08/20 09:04:22;;;;;;;2.10;0.82;;;;;28.80;101599.00;;;;5089903;28;20660;-77
2022/08/20 09:06:52;;;;;;;2.70;0.90;;;;;28.90;101604.00;;;;5090572;28;20719;-77
2022/08/20 09:09:25;;;;;;;2.53;0.93;;;;;29.00;101606.00;;;;5091381;28;20229;-78
2022/08/20 09:11:55;;;;;;;4.25;1.58;;;;;29.10;101608.00;;;;5091031;28;20200;-77
2022/08/20 09:14:24;;;;;;;1.95;0.98;;;;;29.10;101615.00;;;;5093270;28;20229;-77
2022/08/20 09:16:51;;;;;;;1.50;0.70;;;;;29.20;101607.00;;;;5097499;28;20233;-78
2022/08/20 09:19:19;;;;;;;6.10;1.10;;;;;29.30;101612.00;;;;5088601;28;20198;-78
2022/08/20 09:21:46;;;;;;;6.15;0.68;;;;;29.30;101614.00;;;;5088868;28;20194;-79
2022/08/20 09:24:13;;;;;;;3.45;0.80;;;;;29.40;101617.00;;;;5091227;28;20285;-80
2022/08/20 09:26:42;;;;;;;3.03;0.80;;;;;29.40;101607.00;;;;5092062;28;20237;-81
2022/08/20 09:29:10;;;;;;;2.50;0.60;;;;;29.50;101615.00;;;;5086333;28;20202;-78
2022/08/20 09:31:38;;;;;;;3.80;1.15;;;;;29.60;101607.00;;;;5088363;28;20205;-79
2022/08/20 09:34:05;;;;;;;1.23;0.57;;;;;29.60;101597.00;;;;5086806;28;20202;-80
2022/08/20 09:36:34;;;;;;;2.72;0.85;;;;;29.70;101604.00;;;;5101903;28;20199;-78
2022/08/20 09:39:01;;;;;;;1.52;0.60;;;;;29.70;101603.00;;;;5093769;28;20289;-79
2022/08/20 09:41:28;;;;;;;6.32;0.70;;;;;29.80;101603.00;;;;5092775;28;20194;-79
2022/08/20 09:43:57;;;;;;;2.00;0.70;;;;;29.80;101608.00;;;;5090575;28;20194;-79
2022/08/20 09:46:25;;;;;;;1.95;0.80;;;;;29.90;101602.00;;;;5083036;28;20221;-79
2022/08/20 09:48:52;;;;;;;3.53;1.10;;;;;29.90;101616.00;;;;5099391;28;20580;-79
2022/08/20 09:51:21;;;;;;;4.03;0.68;;;;;30.00;101602.00;;;;5090517;28;20210;-79
2022/08/20 09:53:49;;;;;;;1.50;0.70;;;;;30.00;101603.00;;;;5090037;28;20205;-81
2022/08/20 09:56:17;;;;;;;2.33;0.70;;;;;30.10;101602.00;;;;5088275;28;20711;-81
2022/08/20 09:58:49;;;;;;;1.58;0.77;;;;;30.10;101606.00;;;;5086124;28;20560;-78
2022/08/20 10:01:20;;;;;;;14.80;2.13;;;;;30.20;101607.00;;;;5090495;28;20566;-79
2022/08/20 10:03:48;;;;;;;2.05;0.85;;;;;30.30;101612.00;;;;5088491;28;20194;-79
2022/08/20 10:06:18;;;;;;;3.10;0.88;;;;;30.40;101615.00;;;;5087872;28;20217;-80
2022/08/20 10:08:46;;;;;;;2.40;1.00;;;;;30.40;101613.00;;;;5086013;28;20198;-80
2022/08/20 10:11:13;;;;;;;6.18;0.63;;;;;30.50;101608.00;;;;5083366;28;20194;-80
2022/08/20 10:13:40;;;;;;;2.28;0.60;;;;;30.50;101608.00;;;;5087563;28;20218;-80
2022/08/20 10:16:08;;;;;;;2.53;0.63;;;;;30.70;101614.00;;;;5077394;28;20194;-82
2022/08/20 10:18:37;;;;;;;1.63;0.77;;;;;30.70;101615.00;;;;5087203;28;20197;-79
2022/08/20 10:21:08;;;;;;;4.38;1.10;;;;;30.80;101604.00;;;;5094434;28;20209;-81
2022/08/20 10:23:36;;;;;;;2.70;0.88;;;;;30.90;101602.00;;;;5082498;28;20206;-80
2022/08/20 10:26:03;;;;;;;4.07;0.85;;;;;30.90;101612.00;;;;5084311;28;20592;-79
2022/08/20 10:28:30;;;;;;;2.38;0.98;;;;;31.00;101604.00;;;;5080088;28;20206;-79
2022/08/20 10:30:57;;;;;;;5.38;1.30;;;;;31.00;101604.00;;;;5086034;28;20190;-79
2022/08/20 10:33:26;;;;;;;5.38;0.98;;;;;31.10;101612.00;;;;5085171;28;20660;-79
2022/08/20 10:35:54;;;;;;;1.63;0.73;;;;;31.10;101615.00;;;;5085074;28;20189;-80
2022/08/20 10:38:23;;;;;;;2.55;0.95;;;;;31.20;101620.00;;;;5087006;28;20735;-79
2022/08/20 10:40:50;;;;;;;2.75;1.02;;;;;31.20;101615.00;;;;5084413;28;20220;-81
2022/08/20 10:43:17;;;;;;;3.22;1.30;;;;;31.20;101614.00;;;;5085983;28;20197;-80
2022/08/20 10:45:45;;;;;;;2.65;1.15;;;;;31.20;101604.00;;;;5086250;28;20202;-81
2022/08/20 10:48:12;;;;;;;1.70;0.80;;;;;31.30;101617.00;;;;5088632;28;20190;-83
2022/08/20 10:50:39;;;;;;;5.95;1.15;;;;;31.30;101608.00;;;;5079261;28;20205;-81
2022/08/20 10:53:08;;;;;;;3.20;0.75;;;;;31.30;101608.00;;;;5088570;28;20198;-80
2022/08/20 10:55:35;;;;;;;2.75;1.10;;;;;31.40;101616.00;;;;5081520;28;20193;-80
2022/08/20 10:58:06;;;;;;;2.88;0.98;;;;;31.40;101624.00;;;;5082744;28;20198;-80
2022/08/20 11:00:33;;;;;;;5.22;0.88;;;;;31.50;101626.00;;;;5086861;28;20194;-79
2022/08/20 11:03:01;;;;;;;4.82;1.13;;;;;31.50;101624.00;;;;5085495;28;20224;-81
2022/08/20 11:05:28;;;;;;;2.75;0.90;;;;;31.40;101608.00;;;;5086947;28;20197;-79
2022/08/20 11:07:56;;;;;;;4.22;1.00;;;;;31.50;101616.00;;;;5088257;28;20222;-80
2022/08/20 11:10:26;;;;;;;5.15;1.23;;;;;31.40;101623.00;;;;5085468;28;20212;-80
2022/08/20 11:12:54;;;;;;;3.33;1.65;;;;;31.40;101626.00;;;;5090611;28;20229;-80
2022/08/20 11:15:21;;;;;;;2.35;1.20;;;;;31.40;101619.00;;;;5088269;28;20713;-80
2022/08/20 11:17:48;;;;;;;3.20;1.20;;;;;31.50;101623.00;;;;5087800;28;20726;-79
2022/08/20 11:20:19;;;;;;;4.30;1.50;;;;;31.40;101619.00;;;;5084683;28;20314;-79
2022/08/20 11:22:47;;;;;;;3.38;1.30;;;;;31.50;101614.00;;;;5090575;28;20198;-79
2022/08/20 11:25:15;;;;;;;2.60;0.98;;;;;31.40;101620.00;;;;5089592;28;20262;-77
2022/08/20 11:27:46;;;;;;;3.65;1.00;;;;;31.30;101621.00;;;;5083682;28;20237;-78
2022/08/20 11:30:18;;;;;;;3.92;1.38;;;;;31.30;101623.00;;;;5081811;28;20206;-79
2022/08/20 11:32:45;;;;;;;3.10;1.55;;;;;31.30;101618.00;;;;5084135;28;20198;-79
2022/08/20 11:35:13;;;;;;;2.80;1.10;;;;;31.20;101625.00;;;;5085914;28;20688;-79
2022/08/20 11:37:41;;;;;;;3.22;0.98;;;;;31.20;101624.00;;;;5073428;28;20206;-80
2022/08/20 11:40:10;;;;;;;3.63;1.80;;;;;31.10;101621.00;;;;5082074;28;20202;-80
2022/08/20 11:42:38;;;;;;;3.55;1.20;;;;;31.00;101628.00;;;;5081727;28;20755;-81
2022/08/20 11:45:08;;;;;;;3.25;1.10;;;;;30.90;101631.00;;;;5086910;28;20197;-78
2022/08/20 11:47:36;;;;;;;5.47;1.83;;;;;30.90;101630.00;;;;5080393;28;20232;-78
2022/08/20 11:50:07;;;;;;;3.10;1.27;;;;;30.80;101620.00;;;;5086840;28;20574;-78
2022/08/20 11:52:35;;;;;;;2.83;1.15;;;;;30.80;101627.00;;;;5086649;28;20202;-78
2022/08/20 11:55:02;;;;;;;5.03;1.00;;;;;30.80;101619.00;;;;5085591;28;20213;-79
2022/08/20 11:57:32;;;;;;;2.00;1.17;;;;;30.70;101615.00;;;;5087004;28;20648;-79
2022/08/20 12:00:01;;;;;;;2.60;1.20;;;;;30.70;101617.00;;;;5087171;28;20210;-78
2022/08/20 12:02:29;;;;;;;3.55;1.08;;;;;30.70;101620.00;;;;5086051;28;20194;-79
2022/08/20 12:04:57;;;;;;;3.08;0.82;;;;;30.60;101616.00;;;;5085673;28;20195;-79
2022/08/20 12:07:25;;;;;;;2.72;0.93;;;;;30.60;101620.00;;;;5081790;28;20309;-79
2022/08/20 12:09:53;;;;;;;3.83;0.70;;;;;30.50;101620.00;;;;5079700;28;20190;-77
2022/08/20 12:12:22;;;;;;;4.93;1.20;;;;;30.40;101622.00;;;;5084962;28;20281;-78
2022/08/20 12:14:50;;;;;;;2.75;1.10;;;;;30.40;101620.00;;;;5084218;28;20289;-77
2022/08/20 12:17:22;;;;;;;4.47;1.48;;;;;30.40;101618.00;;;;5086983;28;20198;-77
2022/08/20 12:19:52;;;;;;;2.85;1.15;;;;;30.40;101615.00;;;;5085011;28;20201;-79
2022/08/20 12:22:20;;;;;;;2.35;0.98;;;;;30.40;101607.00;;;;5085734;28;20194;-77
2022/08/20 12:24:47;;;;;;;4.03;1.77;;;;;30.50;101603.00;;;;5086483;28;20195;-77